메인 페이지
METAR-TAF:

METAR-TAF

공항 :

날치크, 러시아

위도: 43-30-46N, 경도: 043-38-12E, 고도: 445m

현재 날씨관측

예보는 58분 전, 18:00시(UTC)에 발표되었습니다.
남남서8kt
온도 18°C
습도 28%
기압 1018 hPa
시정 10km 이상

METAR: URMN 251800Z 21004MPS 9999 NSC 18/M01 Q1018 R24/////// NOSIG RMK QFE727

시각: 22:58 (18:58 UTC)

예보

예보는 1 시간 58분 전, 17:00시(UTC)에 발표되었습니다.
예보 대상 시간: 25일 18시부터 26일 03시까지 (UTC)
서남서6kt
시정 10km 이상
고도 2000ft 상공 구름 보통

TAF: URMN 251700Z 2518/2603 24003MPS 9999 SCT020

4,000개 이상의 공항 관측 자료 및 예보 (METAR 및 TAF 보고).

지도상에서 검색 가능한 기상관측소가 노란 점과 빨간 점으로 표시되어 있습니다.

기상관측소 명을 보려면 표시 위로 마우스를 이동하세요.

날씨 관측과 예보를 보려면 클릭하세요.

지도 변경 : 확대하려면 엑스 표시가 있는 녹색 버튼, 축소하려면 빼기 표시가 있는 녹색 버튼, 다음 페이지의 지도를 보려면 녹색 화살표를 클릭하세요.


METAR-TAF: